Time;durP1;ratioP1;P1;durP2;ratioP2;P2;SDS_P1;SDS_P2;PMS_P1;PMS_P2;Temp;Humidity;BMP_temperature;BMP_pressure;BME280_temperature;BME280_humidity;BME280_pressure;Samples;Min_cycle;Max_cycle;Signal;HPM_P1;HPM_P2
2021/11/08 00:02:38;;;;;;;6.78;1.80;;;;;;;6.31;76.21;100014.13;10460660;28;20556;-72
2021/11/08 00:07:40;;;;;;;3.90;1.70;;;;;;;6.27;76.69;100025.50;10460718;28;20056;-72
2021/11/08 00:12:42;;;;;;;5.45;1.65;;;;;;;6.24;76.76;100033.34;10443826;28;20041;-72
2021/11/08 00:17:56;;;;;;;7.95;1.75;;;;;;;6.36;76.37;100033.19;10460798;28;20543;-73
2021/11/08 00:22:57;;;;;;;5.40;2.53;;;;;;;6.34;76.19;100042.81;10461335;28;20549;-73
2021/11/08 00:27:59;;;;;;;7.72;2.13;;;;;;;6.36;76.14;100041.03;10460006;28;20453;-72
2021/11/08 00:33:02;;;;;;;6.60;1.38;;;;;;;6.20;76.92;100042.16;10459494;28;20041;-72
2021/11/08 00:38:05;;;;;;;5.40;1.45;;;;;;;6.29;77.21;100049.84;10441727;28;20091;-72
2021/11/08 00:43:07;;;;;;;7.80;1.63;;;;;;;6.40;76.97;100057.50;10458946;28;20103;-72
2021/11/08 00:48:09;;;;;;;6.00;1.30;;;;;;;6.45;76.97;100056.56;10457993;28;20044;-72
2021/11/08 00:53:11;;;;;;;5.85;1.40;;;;;;;6.60;76.72;100063.31;10458530;28;20040;-73
2021/11/08 00:58:33;;;;;;;6.13;1.70;;;;;;;6.52;76.74;100067.78;10459478;28;20052;-73
2021/11/08 01:03:41;;;;;;;7.10;1.65;;;;;;;6.50;76.85;100077.38;10458761;28;20510;-72
2021/11/08 01:08:44;;;;;;;10.55;1.70;;;;;;;6.53;77.00;100074.72;10439782;28;20198;-72
2021/11/08 01:13:45;;;;;;;6.32;1.65;;;;;;;6.65;76.74;100071.09;10457424;28;20043;-73
2021/11/08 01:18:52;;;;;;;6.45;1.77;;;;;;;6.60;76.85;100071.16;10458395;28;20473;-73
2021/11/08 01:23:53;;;;;;;6.75;1.77;;;;;;;6.70;76.19;100071.88;10458365;28;20049;-72
2021/11/08 01:28:55;;;;;;;5.43;1.42;;;;;;;6.69;76.36;100076.22;10439557;28;20410;-72
2021/11/08 01:33:57;;;;;;;9.75;2.40;;;;;;;6.70;76.47;100074.47;10456799;28;20041;-72
2021/11/08 01:39:12;;;;;;;7.45;1.52;;;;;;;6.80;76.24;100079.53;10457210;28;20091;-72
2021/11/08 01:44:15;;;;;;;7.00;1.30;;;;;;;6.92;75.54;100072.41;10456930;28;20045;-72
2021/11/08 01:49:17;;;;;;;5.15;1.70;;;;;;;6.94;75.36;100084.53;10423585;28;20094;-72
2021/11/08 01:54:18;;;;;;;5.80;1.48;;;;;;;6.92;75.47;100081.09;10439190;28;20465;-72
2021/11/08 01:59:25;;;;;;;6.15;1.52;;;;;;;6.95;75.42;100086.28;10439505;28;20048;-72
2021/11/08 02:04:27;;;;;;;6.20;1.63;;;;;;;6.86;75.69;100093.38;10439737;28;20041;-72
2021/11/08 02:09:29;;;;;;;8.63;2.38;;;;;;;6.93;75.21;100087.19;10456739;28;20049;-72
2021/11/08 02:14:31;;;;;;;6.10;1.40;;;;;;;6.92;74.88;100081.09;10456177;28;20060;-72
2021/11/08 02:19:33;;;;;;;7.35;1.88;;;;;;;6.85;75.09;100086.44;10456956;28;20041;-72
2021/11/08 02:24:40;;;;;;;8.93;1.98;;;;;;;6.79;75.58;100092.63;10456112;28;20525;-72
2021/11/08 02:29:42;;;;;;;10.93;1.73;;;;;;;6.87;75.19;100105.59;10438543;28;20053;-71
2021/11/08 02:34:44;;;;;;;7.72;2.05;;;;;;;6.74;75.96;100094.44;10437968;28;20493;-73
2021/11/08 02:39:49;;;;;;;8.80;2.22;;;;;;;6.83;75.52;100102.16;10438042;28;20056;-72
2021/11/08 02:44:50;;;;;;;9.00;2.00;;;;;;;6.73;75.81;100104.03;10437815;28;20099;-72
2021/11/08 02:49:54;;;;;;;7.00;2.15;;;;;;;6.85;75.14;100108.19;10437736;28;20494;-72
2021/11/08 02:54:56;;;;;;;7.20;1.60;;;;;;;6.90;75.21;100108.13;10456332;28;20037;-72
2021/11/08 02:59:59;;;;;;;6.88;2.15;;;;;;;6.95;74.91;100115.03;10437308;28;20110;-73
2021/11/08 03:05:00;;;;;;;8.65;2.65;;;;;;;6.94;74.96;100115.88;10438905;28;20514;-73
2021/11/08 03:10:11;;;;;;;6.57;1.67;;;;;;;6.93;75.28;100121.16;10462269;28;20041;-72
2021/11/08 03:15:16;;;;;;;5.18;1.40;;;;;;;6.83;75.95;100128.28;10461850;28;20485;-72
2021/11/08 03:20:19;;;;;;;8.00;1.98;;;;;;;6.92;75.46;100133.34;10462583;28;20051;-73
2021/11/08 03:30:40;;;;;;;5.72;1.73;;;;;;;7.11;74.82;100141.78;10443284;28;20140;-73
2021/11/08 03:35:42;;;;;;;6.75;1.75;;;;;;;7.08;74.84;100153.16;10461661;28;20045;-72
2021/11/08 03:40:46;;;;;;;5.63;1.70;;;;;;;7.12;74.53;100153.09;10443342;28;20049;-71
2021/11/08 03:45:49;;;;;;;7.65;2.58;;;;;;;7.30;73.73;100155.41;10443049;28;20041;-72
2021/11/08 03:50:51;;;;;;;9.05;1.90;;;;;;;7.12;74.54;100164.41;10443405;28;20052;-72
2021/11/08 03:55:53;;;;;;;6.68;2.33;;;;;;;7.29;73.46;100161.53;10460557;28;20083;-72
2021/11/08 04:00:55;;;;;;;6.75;1.80;;;;;;;7.13;74.19;100170.47;10442476;28;20048;-72
2021/11/08 04:05:57;;;;;;;6.28;1.85;;;;;;;7.25;73.46;100173.78;10442678;28;20044;-72
2021/11/08 04:10:59;;;;;;;8.40;1.83;;;;;;;7.06;74.63;100161.88;10460014;28;20048;-73
2021/11/08 04:16:02;;;;;;;7.60;1.85;;;;;;;7.23;73.66;100174.72;10440642;28;20557;-73
2021/11/08 04:21:05;;;;;;;9.90;2.28;;;;;;;7.23;73.71;100172.09;10442876;28;20049;-72
2021/11/08 04:26:07;;;;;;;8.85;1.85;;;;;;;7.30;72.91;100171.97;10441514;28;20045;-72
2021/11/08 04:31:09;;;;;;;7.60;1.95;;;;;;;7.28;73.31;100184.19;10459503;28;20045;-71
2021/11/08 04:41:44;;;;;;;6.93;1.83;;;;;;;7.33;72.98;100191.97;10458940;28;20045;-72
2021/11/08 05:34:15;;;;;;;6.68;1.83;;;;;;;7.25;74.50;100210.38;10457619;28;20095;-72
2021/11/08 05:39:17;;;;;;;8.77;2.08;;;;;;;7.22;74.98;100222.66;10457109;28;20041;-72
2021/11/08 05:44:19;;;;;;;6.65;1.80;;;;;;;7.21;75.29;100229.63;10438596;28;20091;-72
2021/11/08 05:49:21;;;;;;;7.47;2.38;;;;;;;7.24;75.11;100242.66;10457137;28;20052;-72
2021/11/08 05:54:23;;;;;;;8.13;2.58;;;;;;;7.12;76.06;100248.03;10456684;28;20483;-72
2021/11/08 05:59:45;;;;;;;7.57;2.20;;;;;;;7.18;76.04;100247.13;10457327;28;20113;-72
2021/11/08 06:52:51;;;;;;;10.20;3.05;;;;;;;7.50;73.32;100307.66;10465141;28;20495;-74
2021/11/08 06:58:00;;;;;;;11.23;2.10;;;;;;;7.47;73.97;100323.38;10464787;28;20037;-72
2021/11/08 07:03:02;;;;;;;8.07;2.95;;;;;;;7.48;73.36;100317.28;10463584;28;20045;-73
2021/11/08 07:08:04;;;;;;;11.95;2.55;;;;;;;7.52;73.28;100329.41;10463758;28;20091;-72
2021/11/08 07:13:06;;;;;;;15.55;2.50;;;;;;;7.49;73.57;100345.16;10463933;28;20057;-72
2021/11/08 07:18:08;;;;;;;7.57;2.67;;;;;;;7.58;73.37;100352.88;10463009;28;20052;-72
2021/11/08 07:23:09;;;;;;;7.53;2.35;;;;;;;7.60;73.46;100355.47;10462606;28;20415;-73
2021/11/08 07:28:14;;;;;;;8.55;2.15;;;;;;;7.69;73.25;100346.59;10463250;28;20040;-74
2021/11/08 07:33:16;;;;;;;7.90;2.00;;;;;;;7.67;73.13;100357.09;10463231;28;20049;-71
2021/11/08 07:38:18;;;;;;;7.90;2.55;;;;;;;7.72;72.73;100373.59;10462915;28;20052;-72
2021/11/08 07:43:20;;;;;;;7.97;2.17;;;;;;;7.84;72.16;100370.81;10462222;28;20106;-72
2021/11/08 07:48:22;;;;;;;7.25;2.25;;;;;;;7.82;72.33;100380.41;10443969;28;20051;-74
2021/11/08 07:53:23;;;;;;;7.93;1.88;;;;;;;7.82;72.60;100385.66;10461360;28;20049;-72
2021/11/08 07:58:25;;;;;;;7.63;2.15;;;;;;;7.91;72.51;100396.88;10461148;28;20075;-73
2021/11/08 08:03:27;;;;;;;8.15;2.35;;;;;;;8.02;71.46;100393.22;10460855;28;20044;-72
2021/11/08 08:08:29;;;;;;;8.20;2.20;;;;;;;7.97;72.35;100392.44;10460126;28;20049;-73
2021/11/08 08:13:34;;;;;;;11.77;1.83;;;;;;;8.01;71.69;100393.22;10459984;28;20098;-72
2021/11/08 08:18:37;;;;;;;9.60;2.67;;;;;;;8.15;71.21;100411.38;10459868;28;20055;-73
2021/11/08 08:23:41;;;;;;;8.45;2.38;;;;;;;8.07;72.08;100396.63;10459609;28;20147;-72
2021/11/08 08:28:42;;;;;;;6.28;2.05;;;;;;;8.24;71.62;100411.22;10460181;28;20060;-72
2021/11/08 08:33:44;;;;;;;9.02;2.28;;;;;;;8.25;71.67;100419.03;10459166;28;20459;-73
2021/11/08 08:38:48;;;;;;;9.35;3.53;;;;;;;8.34;71.37;100426.75;10459579;28;20056;-72
2021/11/08 08:43:50;;;;;;;6.75;1.67;;;;;;;8.34;71.04;100425.88;10458911;28;20461;-73
2021/11/08 08:48:53;;;;;;;11.55;1.77;;;;;;;8.39;71.41;100433.69;10440752;28;20041;-73
2021/11/08 08:53:55;;;;;;;6.97;2.38;;;;;;;8.45;71.91;100441.44;10440391;28;20483;-73
2021/11/08 08:58:57;;;;;;;6.65;2.15;;;;;;;8.46;72.72;100444.06;10457800;28;20041;-72
2021/11/08 09:03:59;;;;;;;12.65;2.10;;;;;;;8.65;71.01;100455.09;10439591;28;20071;-73
2021/11/08 09:09:02;;;;;;;6.45;2.40;;;;;;;8.78;70.25;100463.59;10457621;28;20049;-71
2021/11/08 09:14:04;;;;;;;8.70;2.25;;;;;;;8.69;70.47;100466.38;10457230;28;20094;-72
2021/11/08 09:19:06;;;;;;;12.93;2.55;;;;;;;8.74;70.44;100470.66;10439123;28;20067;-73
2021/11/08 09:24:08;;;;;;;8.70;1.90;;;;;;;8.82;69.80;100460.03;10456902;28;20041;-72
2021/11/08 09:29:09;;;;;;;7.50;1.88;;;;;;;8.95;69.58;100465.94;10456563;28;20055;-72
2021/11/08 09:34:15;;;;;;;15.07;2.50;;;;;;;8.99;69.90;100463.22;10456813;28;20049;-73
2021/11/08 09:39:29;;;;;;;6.70;1.98;;;;;;;9.22;68.24;100467.16;10422834;28;20107;-72
2021/11/08 09:44:32;;;;;;;7.82;1.73;;;;;;;9.33;67.64;100473.06;10457588;28;20033;-72
2021/11/08 09:49:36;;;;;;;13.82;2.10;;;;;;;9.34;67.83;100486.16;10456401;28;20056;-72
2021/11/08 09:54:43;;;;;;;8.30;2.05;;;;;;;9.27;67.21;100486.28;10437809;28;20064;-72
2021/11/08 09:59:44;;;;;;;7.35;1.95;;;;;;;9.21;67.57;100496.88;10456313;28;20056;-73
2021/11/08 10:04:48;;;;;;;7.50;2.10;;;;;;;9.27;68.46;100505.53;10455995;28;20044;-72
2021/11/08 10:09:49;;;;;;;9.90;1.98;;;;;;;9.32;67.88;100522.03;10456868;28;20084;-72
2021/11/08 10:14:51;;;;;;;7.50;1.88;;;;;;;9.21;68.82;100515.25;10459473;28;20410;-72
2021/11/08 10:19:53;;;;;;;7.00;1.42;;;;;;;9.08;68.54;100519.88;10446498;28;20055;-72
2021/11/08 10:25:00;;;;;;;7.38;1.83;;;;;;;9.22;68.75;100519.63;10465027;28;20049;-72
2021/11/08 10:30:02;;;;;;;7.50;2.42;;;;;;;9.13;70.20;100525.91;10464554;28;20045;-72
2021/11/08 10:35:08;;;;;;;6.13;2.22;;;;;;;9.28;69.19;100536.09;10463436;28;20041;-73
2021/11/08 10:40:16;;;;;;;5.40;1.88;;;;;;;9.03;71.15;100529.56;10463787;28;20041;-72
2021/11/08 10:45:52;;;;;;;7.38;2.13;;;;;;;9.15;70.34;100523.25;10463233;28;20102;-73
2021/11/08 10:50:57;;;;;;;9.90;1.90;;;;;;;9.19;70.64;100524.91;10463968;28;20069;-73
2021/11/08 10:56:06;;;;;;;7.05;2.15;;;;;;;9.10;69.79;100520.69;10462922;28;20037;-72
2021/11/08 11:01:19;;;;;;;4.65;1.60;;;;;;;9.26;69.99;100524.78;10462959;28;20048;-73
2021/11/08 11:06:34;;;;;;;5.78;1.75;;;;;;;9.40;69.97;100524.53;10463640;28;20049;-72
2021/11/08 11:11:37;;;;;;;6.07;1.88;;;;;;;9.37;69.26;100529.81;10462433;28;20433;-74
2021/11/08 11:16:50;;;;;;;8.38;1.88;;;;;;;9.33;69.12;100521.13;10461644;28;20041;-73
2021/11/08 11:22:14;;;;;;;8.82;2.25;;;;;;;9.24;69.83;100523.06;10445372;28;20056;-72
2021/11/08 11:27:26;;;;;;;18.45;2.10;;;;;;;9.31;69.88;100522.06;10461615;28;20041;-72
2021/11/08 11:32:28;;;;;;;9.80;2.72;;;;;;;9.38;69.42;100528.91;10461988;28;20049;-74
2021/11/08 11:37:29;;;;;;;7.07;1.92;;;;;;;9.49;69.55;100519.09;10443839;28;20398;-73
2021/11/08 11:42:31;;;;;;;9.43;2.05;;;;;;;9.44;69.04;100509.59;10466463;28;20107;-73
2021/11/08 11:47:34;;;;;;;8.13;2.22;;;;;;;9.55;67.28;100524.22;10467679;28;20501;-73
2021/11/08 11:52:43;;;;;;;5.25;1.60;;;;;;;9.69;68.71;100534.44;10463072;28;20044;-73
2021/11/08 11:57:44;;;;;;;8.40;1.90;;;;;;;10.02;66.68;100537.28;10463824;28;20041;-73
2021/11/08 12:02:50;;;;;;;9.95;2.00;;;;;;;9.97;67.00;100539.13;10462565;28;20072;-74
2021/11/08 12:07:54;;;;;;;13.23;2.33;;;;;;;9.94;66.34;100540.06;10462551;28;20537;-73
2021/11/08 12:12:56;;;;;;;13.13;2.15;;;;;;;9.64;67.58;100538.06;10460578;28;20053;-74
2021/11/08 12:18:13;;;;;;;6.57;2.50;;;;;;;9.66;67.56;100544.16;10461798;28;20091;-74
2021/11/08 12:23:21;;;;;;;5.65;1.60;;;;;;;9.70;67.65;100548.44;10460596;28;20629;-73
2021/11/08 12:28:25;;;;;;;7.35;1.77;;;;;;;9.68;68.73;100555.47;10441805;28;20041;-74
2021/11/08 12:33:41;;;;;;;9.05;2.28;;;;;;;9.78;68.17;100546.50;10442254;28;20053;-74
2021/11/08 12:38:56;;;;;;;9.70;2.35;;;;;;;10.05;66.48;100543.31;10440795;28;20052;-74
2021/11/08 12:44:05;;;;;;;8.90;1.95;;;;;;;9.79;67.52;100550.88;10442005;28;20483;-74
2021/11/08 12:49:20;;;;;;;8.60;2.03;;;;;;;9.68;68.01;100551.09;10460212;28;20414;-74
2021/11/08 12:54:24;;;;;;;10.13;1.95;;;;;;;9.72;67.05;100551.91;10441774;28;20115;-73
2021/11/08 12:59:26;;;;;;;6.20;1.70;;;;;;;9.74;66.07;100550.97;10459133;28;20056;-73
2021/11/08 13:04:49;;;;;;;14.00;1.95;;;;;;;9.59;67.30;100540.75;10494275;28;20387;-74
2021/11/08 13:09:56;;;;;;;7.47;1.90;;;;;;;9.64;67.06;100541.53;10493045;28;20048;-75
2021/11/08 13:15:07;;;;;;;;;;;;;;;9.74;66.24;100536.97;10492533;28;20456;-74
2021/11/08 13:20:09;;;;;;;7.50;1.60;;;;;;;9.70;66.60;100536.19;10475663;28;19921;-74
2021/11/08 13:25:23;;;;;;;8.82;1.65;;;;;;;9.59;66.16;100535.53;10493429;28;20045;-74
2021/11/08 13:30:37;;;;;;;6.55;1.48;;;;;;;9.48;66.61;100548.00;10492472;28;20099;-74
2021/11/08 13:35:41;;;;;;;7.28;1.75;;;;;;;9.38;66.76;100542.03;10492435;28;20036;-75
2021/11/08 13:40:45;;;;;;;5.03;1.77;;;;;;;9.57;66.09;100553.06;10492575;28;20045;-74
2021/11/08 13:45:57;;;;;;;12.20;3.28;;;;;;;9.49;66.45;100547.97;10494010;28;20045;-74
2021/11/08 13:51:16;;;;;;;7.32;2.13;;;;;;;9.34;67.18;100549.13;10493908;28;20037;-74
2021/11/08 13:56:18;;;;;;;9.77;2.47;;;;;;;9.44;66.67;100551.56;10493877;28;20044;-74
2021/11/08 14:01:21;;;;;;;7.18;1.88;;;;;;;9.42;66.60;100558.59;10491637;28;20052;-74
2021/11/08 14:06:29;;;;;;;7.15;1.70;;;;;;;9.35;66.76;100553.47;10492387;28;20506;-73
2021/11/08 14:11:36;;;;;;;8.77;2.00;;;;;;;9.32;66.89;100553.50;10488613;28;20068;-74
2021/11/08 14:16:42;;;;;;;8.70;2.60;;;;;;;9.39;66.09;100558.66;10465808;28;20045;-74
2021/11/08 14:21:45;;;;;;;4.53;1.30;;;;;;;9.38;65.97;100565.66;10464320;28;20388;-75
2021/11/08 14:26:55;;;;;;;5.75;2.22;;;;;;;9.21;66.09;100572.94;10466405;28;20041;-75
2021/11/08 14:32:10;;;;;;;9.20;1.85;;;;;;;9.12;67.10;100579.25;10465329;28;20355;-74
2021/11/08 14:37:18;;;;;;;6.30;1.80;;;;;;;9.06;67.57;100585.44;10465236;28;20045;-75
2021/11/08 14:42:36;;;;;;;5.25;1.33;;;;;;;9.05;67.68;100585.47;10464248;28;20095;-74
2021/11/08 14:47:38;;;;;;;6.95;1.98;;;;;;;8.92;68.20;100592.69;10464422;28;20395;-74
2021/11/08 14:52:46;;;;;;;7.60;1.90;;;;;;;8.95;68.16;100594.41;10465109;28;20060;-75
2021/11/08 14:57:50;;;;;;;6.43;2.15;;;;;;;8.94;67.70;100598.78;10461475;28;20044;-75
2021/11/08 15:02:53;;;;;;;4.38;1.10;;;;;;;9.01;67.02;100608.25;10463602;28;20045;-74
2021/11/08 15:07:59;;;;;;;7.03;1.70;;;;;;;8.74;67.46;100612.19;10460654;28;20049;-74
2021/11/08 15:13:05;;;;;;;4.80;1.73;;;;;;;8.81;68.40;100628.69;10459632;28;20075;-75
2021/11/08 15:18:13;;;;;;;4.05;1.40;;;;;;;8.68;69.02;100625.41;10461270;28;20491;-74
2021/11/08 15:23:22;;;;;;;3.60;1.55;;;;;;;8.65;70.53;100627.19;10460053;28;20041;-74
2021/11/08 15:28:31;;;;;;;4.68;1.50;;;;;;;8.33;73.67;100629.31;10460225;28;20049;-75
2021/11/08 15:33:51;;;;;;;5.50;1.50;;;;;;;8.37;72.71;100624.94;10460734;28;20044;-77
2021/11/08 15:38:56;;;;;;;5.15;1.45;;;;;;;8.27;73.52;100621.53;10460289;28;20063;-76
2021/11/08 15:43:58;;;;;;;5.93;1.30;;;;;;;8.07;74.25;100634.03;10459523;28;20044;-75
2021/11/08 15:49:02;;;;;;;4.20;1.50;;;;;;;8.05;74.13;100635.78;10459456;28;20049;-75
2021/11/08 15:54:04;;;;;;;7.30;2.20;;;;;;;8.12;72.52;100640.06;10460847;28;20045;-76
2021/11/08 15:59:08;;;;;;;6.88;1.83;;;;;;;8.06;72.66;100646.25;10461484;28;20049;-75
2021/11/08 16:04:11;;;;;;;4.68;1.23;;;;;;;7.92;72.57;100656.00;10460227;28;20052;-74
2021/11/08 16:09:13;;;;;;;4.20;0.98;;;;;;;7.87;72.72;100652.56;10460610;28;20056;-75
2021/11/08 16:14:15;;;;;;;4.13;1.30;;;;;;;7.97;71.33;100658.56;10462004;28;20041;-76
2021/11/08 16:19:18;;;;;;;5.75;1.42;;;;;;;7.88;71.75;100656.03;10461256;28;20041;-75
2021/11/08 16:24:23;;;;;;;4.47;1.40;;;;;;;7.88;71.68;100658.66;10462200;28;20041;-75
2021/11/08 16:29:26;;;;;;;3.67;1.50;;;;;;;7.76;73.08;100654.44;10444348;28;20048;-74
2021/11/08 16:34:28;;;;;;;6.30;1.88;;;;;;;7.88;72.04;100676.97;10460732;28;20060;-73
2021/11/08 16:39:31;;;;;;;3.65;1.45;;;;;;;7.77;73.06;100672.72;10458706;28;20095;-73
2021/11/08 16:44:36;;;;;;;4.78;1.67;;;;;;;7.83;72.70;100682.25;10461355;28;20115;-74
2021/11/08 16:49:38;;;;;;;4.57;2.58;;;;;;;7.87;72.12;100683.09;10459725;28;20063;-75
2021/11/08 16:54:41;;;;;;;5.28;1.70;;;;;;;7.76;72.36;100680.63;10442108;28;20053;-74
2021/11/08 16:59:47;;;;;;;3.63;1.40;;;;;;;7.77;72.27;100682.34;10458652;28;20057;-75
2021/11/08 17:04:52;;;;;;;4.63;1.77;;;;;;;7.67;72.54;100680.69;10460035;28;20049;-75
2021/11/08 17:10:10;;;;;;;4.65;1.73;;;;;;;7.65;72.80;100685.94;10458895;28;20052;-75
2021/11/08 17:15:12;;;;;;;2.70;1.35;;;;;;;7.67;71.86;100691.16;10459422;28;20049;-74
2021/11/08 17:20:15;;;;;;;3.58;1.95;;;;;;;7.58;72.69;100702.59;10460513;28;20056;-75
2021/11/08 17:25:17;;;;;;;5.43;1.88;;;;;;;7.63;72.37;100697.31;10460009;28;20060;-76
2021/11/08 17:30:23;;;;;;;2.20;1.30;;;;;;;7.62;72.59;100708.66;10459112;28;20056;-76
2021/11/08 17:35:27;;;;;;;3.83;1.42;;;;;;;7.60;71.91;100716.50;10457443;28;20483;-75
2021/11/08 17:40:30;;;;;;;4.20;1.40;;;;;;;7.45;72.74;100730.59;10464553;28;20091;-75
2021/11/08 17:45:33;;;;;;;3.65;1.58;;;;;;;7.58;71.78;100723.50;10458051;28;20041;-75
2021/11/08 17:50:35;;;;;;;5.90;2.33;;;;;;;7.53;71.82;100731.41;10468462;28;20128;-75
2021/11/08 17:55:41;;;;;;;4.50;1.40;;;;;;;7.63;71.18;100729.56;10470424;28;20356;-74
2021/11/08 18:00:47;;;;;;;3.13;1.20;;;;;;;7.55;70.98;100737.47;10426502;28;20103;-74
2021/11/08 18:05:53;;;;;;;3.47;1.30;;;;;;;7.40;71.82;100744.59;10409879;28;20053;-74
2021/11/08 18:10:55;;;;;;;3.35;1.40;;;;;;;7.47;71.35;100743.66;10422972;28;20129;-75
2021/11/08 18:15:57;;;;;;;3.35;1.45;;;;;;;7.54;71.59;100746.22;10424218;28;20053;-75
2021/11/08 18:21:14;;;;;;;4.07;1.75;;;;;;;7.42;72.59;100756.75;10424915;28;20051;-75
2021/11/08 18:31:27;;;;;;;5.80;1.70;;;;;;;7.58;72.34;100760.16;10424000;28;20084;-74
2021/11/08 18:36:29;;;;;;;3.30;1.95;;;;;;;7.53;74.08;100757.56;10425172;28;20507;-75
2021/11/08 18:41:31;;;;;;;7.32;2.80;;;;;;;7.48;74.53;100767.19;10423037;28;20129;-75
2021/11/08 18:46:35;;;;;;;3.90;1.67;;;;;;;7.47;74.11;100768.06;10424980;28;20057;-76
2021/11/08 18:51:37;;;;;;;3.08;1.70;;;;;;;7.49;73.49;100766.31;10422196;28;20407;-76
2021/11/08 18:56:39;;;;;;;3.03;1.50;;;;;;;7.40;74.43;100774.22;10423810;28;20416;-75
2021/11/08 19:01:47;;;;;;;3.60;1.42;;;;;;;7.58;72.99;100760.16;10424104;28;20049;-75
2021/11/08 19:07:01;;;;;;;4.28;2.00;;;;;;;7.52;73.31;100770.63;10423078;28;20117;-75
2021/11/08 19:12:03;;;;;;;4.53;1.42;;;;;;;7.59;71.79;100777.56;10420758;28;20049;-75
2021/11/08 19:17:09;;;;;;;3.55;1.42;;;;;;;7.58;71.80;100787.19;10421219;28;20049;-76
2021/11/08 19:22:11;;;;;;;5.75;1.63;;;;;;;7.53;71.98;100793.31;10422636;28;20049;-75
2021/11/08 19:27:15;;;;;;;3.58;1.50;;;;;;;7.57;71.65;100793.28;10422866;28;20163;-76
2021/11/08 19:32:21;;;;;;;2.33;1.40;;;;;;;7.59;71.49;100801.97;10423440;28;20449;-77
2021/11/08 19:42:46;;;;;;;6.63;1.55;;;;;;;7.68;71.04;100808.91;10420089;28;20064;-75
2021/11/08 19:47:48;;;;;;;3.70;1.50;;;;;;;7.75;70.87;100813.22;10421182;28;20104;-75
2021/11/08 19:52:51;;;;;;;3.50;1.20;;;;;;;7.74;71.02;100815.81;10419333;28;20095;-76
2021/11/08 19:57:56;;;;;;;2.17;1.42;;;;;;;7.53;72.22;100807.28;10419933;28;20065;-75
2021/11/08 20:02:59;;;;;;;6.18;1.65;;;;;;;7.61;72.20;100822.91;10420739;28;20037;-76
2021/11/08 20:08:02;;;;;;;4.03;1.73;;;;;;;7.45;73.83;100827.38;10422598;28;20045;-77
2021/11/08 20:18:27;;;;;;;4.88;1.80;;;;;;;7.63;72.85;100834.22;10420165;28;20060;-76
2021/11/08 20:23:32;;;;;;;3.83;1.40;;;;;;;7.62;72.89;100842.97;10421876;28;20480;-75
2021/11/08 20:28:40;;;;;;;3.25;1.38;;;;;;;7.53;73.46;100836.06;10420321;28;20103;-75
2021/11/08 20:34:26;;;;;;;3.70;1.50;;;;;;;7.52;73.64;100841.28;10421278;28;20092;-77
2021/11/08 20:39:24;;;;;;;3.35;1.70;;;;;;;7.63;72.35;100852.56;10421239;28;20426;-75
2021/11/08 20:55:02;;;;;;;4.90;2.03;;;;;;;7.39;74.45;100869.25;10421318;28;20053;-77
2021/11/08 21:00:12;;;;;;;6.00;2.10;;;;;;;7.35;75.51;100864.94;10421691;28;20591;-76
2021/11/08 21:05:20;;;;;;;3.63;1.95;;;;;;;7.31;75.77;100861.47;10420742;28;20060;-76
2021/11/08 21:15:59;;;;;;;7.20;2.22;;;;;;;7.32;75.57;100878.03;10334993;28;20070;-76
2021/11/08 21:21:01;;;;;;;3.40;1.58;;;;;;;7.41;74.79;100882.34;10330706;28;20093;-76
2021/11/08 21:26:27;;;;;;;8.63;2.35;;;;;;;7.36;75.91;100878.88;10341875;28;20082;-76
2021/11/08 21:41:51;;;;;;;3.55;2.28;;;;;;;7.43;74.41;100877.94;10324042;28;20057;-75
2021/11/08 21:46:53;;;;;;;5.03;2.20;;;;;;;7.27;75.74;100887.63;10357118;28;20078;-76
2021/11/08 21:51:54;;;;;;;4.57;1.95;;;;;;;7.20;76.16;100878.94;10466186;28;20052;-76
2021/11/08 21:56:56;;;;;;;3.50;2.08;;;;;;;7.39;75.13;100889.31;10465057;28;20410;-76
2021/11/08 22:01:58;;;;;;;4.45;2.15;;;;;;;7.43;74.05;100896.25;10464716;28;20044;-76
2021/11/08 22:06:59;;;;;;;4.47;2.30;;;;;;;7.27;74.74;100901.59;10464695;28;20114;-76
2021/11/08 22:12:03;;;;;;;4.80;2.30;;;;;;;7.27;75.25;100912.03;10465696;28;20045;-75
2021/11/08 22:17:05;;;;;;;5.18;2.30;;;;;;;7.31;74.99;100907.69;10468445;28;20119;-77
2021/11/08 22:22:09;;;;;;;9.05;2.67;;;;;;;7.32;74.61;100905.03;10467680;28;20045;-74
2021/11/08 22:27:12;;;;;;;4.75;2.20;;;;;;;7.13;76.21;100918.19;10466817;28;20138;-76
2021/11/08 22:32:14;;;;;;;6.10;2.10;;;;;;;7.30;75.33;100917.28;10468922;28;20049;-75
2021/11/08 22:37:16;;;;;;;6.05;2.35;;;;;;;7.26;75.13;100917.25;10466574;28;20048;-75
2021/11/08 22:42:19;;;;;;;4.75;2.53;;;;;;;7.36;75.29;100921.59;10448885;28;20517;-76
2021/11/08 22:47:22;;;;;;;6.80;3.08;;;;;;;7.29;75.25;100917.25;10448586;28;20056;-75
2021/11/08 22:52:24;;;;;;;3.72;2.20;;;;;;;7.36;74.43;100925.97;10465319;28;20049;-76
2021/11/08 22:57:28;;;;;;;6.80;2.40;;;;;;;7.08;77.01;100923.44;10466318;28;20076;-76
2021/11/08 23:02:30;;;;;;;4.35;2.95;;;;;;;7.14;76.16;100919.94;10463864;28;20120;-75
2021/11/08 23:07:31;;;;;;;4.63;2.53;;;;;;;6.96;77.28;100926.97;10462884;28;20102;-75
2021/11/08 23:12:33;;;;;;;6.35;2.80;;;;;;;6.85;78.00;100933.94;10445241;28;20048;-76
2021/11/08 23:17:39;;;;;;;4.55;2.50;;;;;;;7.01;77.47;100934.78;10462103;28;20108;-76
2021/11/08 23:22:41;;;;;;;5.65;3.08;;;;;;;7.08;77.52;100946.97;10462377;28;20037;-76
2021/11/08 23:27:44;;;;;;;4.85;2.72;;;;;;;7.06;78.00;100954.81;10461258;28;20383;-75
2021/11/08 23:32:46;;;;;;;3.58;2.45;;;;;;;6.84;79.29;100960.97;10461838;28;20041;-73
2021/11/08 23:37:50;;;;;;;4.93;2.55;;;;;;;6.81;78.81;100959.22;10462035;28;20076;-75
2021/11/08 23:42:56;;;;;;;3.15;2.72;;;;;;;7.04;78.01;100961.81;10460560;28;20116;-74
2021/11/08 23:47:57;;;;;;;3.08;2.47;;;;;;;6.94;78.64;100974.88;10459941;28;20055;-76
2021/11/08 23:52:59;;;;;;;3.58;2.40;;;;;;;6.87;78.84;100976.66;10460563;28;20051;-76
2021/11/08 23:58:01;;;;;;;4.53;2.42;;;;;;;7.12;77.92;100979.19;10460320;28;20052;-75
